EGMC

Southend Airport

Southend, United Kingdom
METAR EGMC 160550Z 19004KT CAVOK 04/02 Q1006
Observed Flight Rules
Dec-16 @ 05:50 UTC (16 minutes ago) Visual Flight Rules
Wind Visibility Clouds
190° at 4 knots 10,000+ meters
  • Clear skies
Temperatures Readings
Current 4°C / 39°F
Dewpoint 2°C / 36°F
Humidity 87%
Altimeter 29.7" Hg
Pressure 1006 hPa
Elevation 15
METAR EGMC 160550Z 19004KT CAVOK 04/02 Q1006
Observed Flight Rules
Dec-16 @ 05:50 UTC
(16 minutes ago)
VFR
Wind Visibility
190° at 4 knots 10,000+ meters
Clouds
  • Clear skies
Temperature Dewpoint
4°C / 39°F 2°C / 36°F
Humidity Altimeter Pressure
87% 29.7" Hg 1006 hPa